Time;durP1;ratioP1;P1;durP2;ratioP2;P2;SDS_P1;SDS_P2;PMS_P1;PMS_P2;Temp;Humidity;BMP_temperature;BMP_pressure;BME280_temperature;BME280_humidity;BME280_pressure;Samples;Min_cycle;Max_cycle;Signal;HPM_P1;HPM_P2
2022/01/11 00:00:43;;;;;;;60.17;28.65;;;;;;;-0.55;100.00;102983.88;5090592;28;20024;-81
2022/01/11 00:03:09;;;;;;;88.05;29.15;;;;;;;-0.55;100.00;102994.22;5089133;28;20102;-81
2022/01/11 00:05:45;;;;;;;91.43;28.90;;;;;;;-0.57;100.00;102994.19;5090570;28;20103;-81
2022/01/11 00:08:15;;;;;;;72.82;29.13;;;;;;;-0.54;100.00;103011.44;5082615;28;20446;-81
2022/01/11 00:10:53;;;;;;;68.47;30.27;;;;;;;-0.56;100.00;103019.19;5083612;28;20547;-81
2022/01/11 00:13:20;;;;;;;71.43;30.95;;;;;;;-0.55;100.00;103020.94;5083604;28;20042;-81
2022/01/11 00:15:47;;;;;;;68.55;29.63;;;;;;;-0.52;100.00;103022.66;5089427;28;20408;-81
2022/01/11 00:18:13;;;;;;;80.43;31.98;;;;;;;-0.54;100.00;103014.91;5088013;28;20119;-81
2022/01/11 00:20:39;;;;;;;72.90;30.13;;;;;;;-0.55;100.00;103017.47;5078733;28;20116;-81
2022/01/11 00:25:34;;;;;;;78.07;30.92;;;;;;;-0.53;100.00;103006.28;5079411;28;20402;-81
2022/01/11 00:28:00;;;;;;;71.72;32.63;;;;;;;-0.50;100.00;103008.03;5084550;28;20463;-81
2022/01/11 00:30:33;;;;;;;87.90;33.53;;;;;;;-0.48;100.00;103011.47;5079704;28;20411;-81
2022/01/11 00:33:01;;;;;;;;;;;;;;;-0.41;100.00;103010.66;5083211;28;20043;-81
2022/01/11 00:35:39;;;;;;;79.10;32.30;;;;;;;-0.47;100.00;103006.31;5088256;28;19919;-80
2022/01/11 00:38:05;;;;;;;72.72;31.95;;;;;;;-0.42;100.00;103008.94;5087444;28;20034;-81
2022/01/11 00:40:31;;;;;;;81.90;33.78;;;;;;;-0.41;100.00;103008.06;5089834;28;20035;-81
2022/01/11 00:42:59;;;;;;;77.45;32.85;;;;;;;-0.40;100.00;103010.72;5088840;28;20484;-81
2022/01/11 00:45:26;;;;;;;79.97;32.88;;;;;;;-0.39;100.00;103012.44;5088003;28;20135;-81
2022/01/11 00:47:53;;;;;;;80.05;34.00;;;;;;;-0.38;100.00;103014.16;5095447;28;20123;-81
2022/01/11 00:50:18;;;;;;;81.55;34.22;;;;;;;-0.39;100.00;103004.69;5085328;28;20024;-81
2022/01/11 00:52:44;;;;;;;84.72;33.03;;;;;;;-0.42;100.00;102996.88;5086642;28;20031;-81
2022/01/11 00:55:10;;;;;;;83.90;33.22;;;;;;;-0.37;100.00;103007.28;5088081;28;20062;-81
2022/01/11 00:57:35;;;;;;;83.78;33.55;;;;;;;-0.39;100.00;102990.88;5089931;28;20120;-81
2022/01/11 01:00:02;;;;;;;83.78;33.65;;;;;;;-0.33;100.00;103011.59;5105889;28;20039;-81
2022/01/11 01:02:27;;;;;;;88.18;35.83;;;;;;;-0.34;100.00;103009.88;5088011;28;20020;-81
2022/01/11 01:04:52;;;;;;;90.05;34.45;;;;;;;-0.33;100.00;103001.25;5090972;28;20024;-81
2022/01/11 01:07:18;;;;;;;89.70;33.65;;;;;;;-0.38;100.00;102996.06;5097080;28;20030;-81
2022/01/11 01:10:00;;;;;;;90.80;35.50;;;;;;;-0.33;100.00;103011.59;5085722;28;20057;-81
2022/01/11 01:12:25;;;;;;;83.85;35.03;;;;;;;-0.33;100.00;103014.19;5086311;28;20024;-81
2022/01/11 01:14:51;;;;;;;86.38;34.53;;;;;;;-0.34;100.00;103015.91;5088256;28;20031;-81
2022/01/11 01:17:16;;;;;;;86.88;33.25;;;;;;;-0.31;100.00;103025.41;5074103;28;20069;-80
2022/01/11 01:19:42;;;;;;;91.18;34.78;;;;;;;-0.30;100.00;103015.94;5088297;28;20276;-81
2022/01/11 01:22:07;;;;;;;95.43;35.83;;;;;;;-0.32;100.00;103019.38;5080089;28;20391;-81
2022/01/11 01:24:32;;;;;;;84.97;34.10;;;;;;;-0.34;100.00;103009.88;5087687;28;20103;-81
2022/01/11 01:26:59;;;;;;;90.85;35.28;;;;;;;-0.29;100.00;103013.34;5087635;28;20452;-81
2022/01/11 01:29:25;;;;;;;93.53;35.72;;;;;;;-0.31;100.00;103004.72;5087425;28;20028;-81
2022/01/11 01:31:50;;;;;;;90.80;34.45;;;;;;;-0.25;100.00;103009.06;5089008;28;20031;-80
2022/01/11 01:34:16;;;;;;;96.65;35.45;;;;;;;-0.26;100.00;103015.94;5088328;28;20043;-81
2022/01/11 01:36:42;;;;;;;98.65;38.47;;;;;;;-0.26;100.00;103017.66;5087768;28;20102;-81
2022/01/11 01:39:07;;;;;;;98.65;35.92;;;;;;;-0.29;100.00;103015.06;5087019;28;20063;-81
2022/01/11 01:41:33;;;;;;;91.68;35.53;;;;;;;-0.25;100.00;103019.41;5080959;28;20020;-81
2022/01/11 01:44:02;;;;;;;92.88;35.08;;;;;;;-0.25;100.00;103022.00;5077631;28;20028;-83
2022/01/11 01:46:28;;;;;;;85.85;34.17;;;;;;;-0.26;100.00;103023.72;5088288;28;20032;-83
2022/01/11 01:48:57;;;;;;;92.18;35.33;;;;;;;-0.24;100.00;103016.81;5086966;28;20032;-83
2022/01/11 01:51:23;;;;;;;94.70;35.13;;;;;;;-0.25;100.00;103009.06;5087244;28;20077;-84
2022/01/11 01:53:50;;;;;;;93.65;36.47;;;;;;;-0.24;100.00;103013.38;5087581;28;20020;-83
2022/01/11 01:56:18;;;;;;;88.85;33.03;;;;;;;-0.25;100.00;103012.50;5088118;28;20050;-81
2022/01/11 01:58:44;;;;;;;91.85;34.95;;;;;;;-0.26;100.00;103010.78;5087396;28;20024;-81
2022/01/11 02:01:12;;;;;;;84.35;33.67;;;;;;;-0.26;100.00;103015.94;5083458;28;20035;-81
2022/01/11 02:03:40;;;;;;;87.15;34.03;;;;;;;-0.28;100.00;103020.25;5087331;28;20027;-81
2022/01/11 02:06:13;;;;;;;83.10;34.03;;;;;;;-0.30;100.00;103027.13;5086966;28;20048;-81
2022/01/11 02:08:38;;;;;;;85.82;32.92;;;;;;;-0.30;100.00;103032.31;5087775;28;20063;-81
2022/01/11 02:11:06;;;;;;;79.85;32.45;;;;;;;-0.31;100.00;103030.56;5085119;28;20537;-81
2022/01/11 02:13:31;;;;;;;84.85;34.22;;;;;;;-0.27;100.00;103036.63;5081961;28;20319;-81
2022/01/11 02:15:57;;;;;;;82.32;32.25;;;;;;;-0.29;100.00;103028.00;5086844;28;20468;-81
2022/01/11 02:18:26;;;;;;;83.03;33.47;;;;;;;-0.28;100.00;103038.34;5081096;28;20407;-81
2022/01/11 02:20:55;;;;;;;77.25;31.30;;;;;;;-0.26;100.00;103038.38;5084803;28;20340;-81
2022/01/11 02:23:20;;;;;;;80.70;32.33;;;;;;;-0.27;100.00;103053.00;5083646;28;20029;-81
2022/01/11 02:25:46;;;;;;;80.65;31.95;;;;;;;-0.31;100.00;103046.09;5082761;28;20016;-81
2022/01/11 02:28:15;;;;;;;79.78;32.45;;;;;;;-0.29;100.00;103057.31;5080156;28;20495;-81
2022/01/11 02:30:41;;;;;;;81.30;33.08;;;;;;;-0.29;100.00;103061.63;5082390;28;20633;-81
2022/01/11 02:33:14;;;;;;;82.18;31.70;;;;;;;-0.33;100.00;103047.81;5084601;28;20104;-81
2022/01/11 02:35:46;;;;;;;80.43;32.38;;;;;;;-0.31;100.00;103040.91;5088628;28;20452;-81
2022/01/11 02:38:15;;;;;;;81.18;32.80;;;;;;;-0.29;100.00;103049.56;5087947;28;20031;-81
2022/01/11 02:40:40;;;;;;;75.20;30.92;;;;;;;-0.28;100.00;103055.59;5087974;28;20028;-81
2022/01/11 02:43:06;;;;;;;73.88;31.38;;;;;;;-0.30;100.00;103065.94;5079898;28;20039;-81
2022/01/11 02:45:31;;;;;;;75.88;32.22;;;;;;;-0.31;100.00;103066.78;5080232;28;20257;-81
2022/01/11 02:47:56;;;;;;;74.38;31.60;;;;;;;-0.33;100.00;103073.66;5087301;28;20055;-81
2022/01/11 02:50:22;;;;;;;77.53;32.38;;;;;;;-0.35;100.00;103067.63;5089245;28;20332;-81
2022/01/11 02:52:47;;;;;;;73.60;30.48;;;;;;;-0.33;100.00;103073.66;5085479;28;20028;-81
2022/01/11 02:55:15;;;;;;;76.60;31.70;;;;;;;-0.34;100.00;103082.28;5089022;28;20028;-81
2022/01/11 02:57:40;;;;;;;77.57;32.42;;;;;;;-0.34;100.00;103082.28;5092195;28;20360;-81
2022/01/11 03:00:15;;;;;;;78.20;32.58;;;;;;;-0.34;100.00;103085.75;5092018;28;20039;-81
2022/01/11 03:02:40;;;;;;;84.28;32.92;;;;;;;-0.37;100.00;103083.13;5104762;28;20105;-81
2022/01/11 03:05:07;;;;;;;73.90;31.67;;;;;;;-0.37;100.00;103077.09;5083303;28;20454;-81
2022/01/11 03:07:32;;;;;;;78.43;32.42;;;;;;;-0.37;100.00;103082.25;5085990;28;20028;-81
2022/01/11 03:10:08;;;;;;;82.38;32.58;;;;;;;-0.37;100.00;103082.25;5082691;28;20035;-81
2022/01/11 03:12:35;;;;;;;81.80;33.15;;;;;;;-0.38;100.00;103075.38;5087649;28;20017;-81
2022/01/11 03:15:00;;;;;;;75.63;33.38;;;;;;;-0.37;100.00;103071.91;5072043;28;20077;-81
2022/01/11 03:17:26;;;;;;;77.72;32.33;;;;;;;-0.32;100.00;103088.34;5082083;28;20115;-81
2022/01/11 03:19:53;;;;;;;81.57;33.45;;;;;;;-0.35;100.00;103077.97;5083368;28;20066;-81
2022/01/11 03:22:18;;;;;;;76.75;32.63;;;;;;;-0.36;100.00;103077.09;5091085;28;20028;-81
2022/01/11 03:24:44;;;;;;;78.72;31.63;;;;;;;-0.35;100.00;103085.72;5089272;28;20034;-81
2022/01/11 03:27:10;;;;;;;76.25;31.98;;;;;;;-0.35;100.00;103080.56;5105688;28;20055;-81
2022/01/11 03:29:37;;;;;;;77.32;31.58;;;;;;;-0.36;100.00;103076.25;5082625;28;20056;-81
2022/01/11 03:32:04;;;;;;;69.95;31.95;;;;;;;-0.40;100.00;103077.94;5091995;28;20064;-81
2022/01/11 03:34:30;;;;;;;69.65;29.75;;;;;;;-0.44;100.00;103070.97;5088984;28;20048;-81
2022/01/11 03:36:57;;;;;;;67.65;30.52;;;;;;;-0.44;100.00;103067.53;5107919;28;20476;-81
2022/01/11 03:39:22;;;;;;;72.13;31.02;;;;;;;-0.43;100.00;103067.53;5091525;28;20391;-81
2022/01/11 03:41:48;;;;;;;68.60;30.75;;;;;;;-0.42;100.00;103079.63;5090178;28;20111;-81
2022/01/11 03:44:14;;;;;;;67.25;30.85;;;;;;;-0.43;100.00;103071.84;5091973;28;20031;-81
2022/01/11 03:46:39;;;;;;;64.68;29.35;;;;;;;-0.48;100.00;103063.19;5090519;28;20511;-82
2022/01/11 03:49:04;;;;;;;70.28;31.05;;;;;;;-0.46;100.00;103070.09;5089870;28;20032;-82
2022/01/11 03:51:32;;;;;;;77.78;32.35;;;;;;;-0.49;100.00;103064.91;5090255;28;20069;-82
2022/01/11 03:54:08;;;;;;;74.15;32.53;;;;;;;-0.50;100.00;103064.91;5092076;28;20031;-81
2022/01/11 03:56:34;;;;;;;71.05;32.03;;;;;;;-0.54;100.00;103063.16;5089211;28;20039;-81
2022/01/11 03:59:01;;;;;;;69.93;30.75;;;;;;;-0.53;100.00;103070.06;5104283;28;20027;-81
2022/01/11 04:01:27;;;;;;;69.22;31.25;;;;;;;-0.54;100.00;103068.31;5077731;28;20025;-82
2022/01/11 04:03:52;;;;;;;69.53;31.17;;;;;;;-0.57;100.00;103070.88;5087881;28;20046;-82
2022/01/11 04:06:18;;;;;;;71.85;31.77;;;;;;;-0.58;100.00;103076.91;5086497;28;20020;-81
2022/01/11 04:08:45;;;;;;;68.80;31.17;;;;;;;-0.60;100.00;103073.44;5105050;28;20365;-82
2022/01/11 04:11:14;;;;;;;69.15;31.20;;;;;;;-0.63;100.00;103067.41;5091303;28;20054;-81
2022/01/11 04:13:40;;;;;;;70.30;30.10;;;;;;;-0.57;100.00;103078.66;5089903;28;20090;-81
2022/01/11 04:16:06;;;;;;;71.97;31.02;;;;;;;-0.57;100.00;103086.41;5081099;28;20024;-81
2022/01/11 04:18:31;;;;;;;68.22;30.75;;;;;;;-0.59;100.00;103082.94;5088047;28;20183;-81
2022/01/11 04:20:57;;;;;;;68.70;30.10;;;;;;;-0.57;100.00;103088.97;5090352;28;20047;-81
2022/01/11 04:23:23;;;;;;;63.20;30.10;;;;;;;-0.58;100.00;103090.69;5089625;28;20031;-81
2022/01/11 04:25:49;;;;;;;65.15;29.63;;;;;;;-0.60;100.00;103083.78;5082423;28;20039;-82
2022/01/11 04:28:14;;;;;;;62.70;30.05;;;;;;;-0.63;100.00;103076.88;5075371;28;20036;-81
2022/01/11 04:30:40;;;;;;;61.70;29.55;;;;;;;-0.65;100.00;103076.88;5089895;28;20043;-81
2022/01/11 04:33:05;;;;;;;61.75;30.17;;;;;;;-0.68;99.71;103082.00;5080358;28;20055;-82
2022/01/11 04:35:31;;;;;;;60.88;28.45;;;;;;;-0.69;100.00;103090.63;5077353;28;20334;-82
2022/01/11 04:37:57;;;;;;;57.85;28.92;;;;;;;-0.71;100.00;103097.50;5085172;28;20028;-82
2022/01/11 04:40:22;;;;;;;62.55;30.00;;;;;;;-0.74;100.00;103097.47;5087995;28;20020;-82
2022/01/11 04:42:49;;;;;;;61.55;28.73;;;;;;;-0.73;100.00;103094.03;5086564;28;20020;-82
2022/01/11 04:45:15;;;;;;;62.25;30.17;;;;;;;-0.74;100.00;103092.31;5089685;28;20028;-82
2022/01/11 04:47:45;;;;;;;61.55;28.48;;;;;;;-0.72;100.00;103095.75;5081918;28;20028;-81
2022/01/11 04:50:14;;;;;;;55.45;28.50;;;;;;;-0.76;99.73;103087.97;5089908;28;20032;-82
2022/01/11 04:52:40;;;;;;;57.85;28.92;;;;;;;-0.73;100.00;103093.16;5072574;28;20035;-81
2022/01/11 04:55:07;;;;;;;61.20;29.77;;;;;;;-0.72;100.00;103095.75;5075965;28;20032;-82
2022/01/11 04:57:32;;;;;;;62.42;30.33;;;;;;;-0.74;99.53;103089.72;5088141;28;20035;-82
2022/01/11 04:59:57;;;;;;;60.63;29.98;;;;;;;-0.75;99.84;103087.13;5089995;28;20036;-82
2022/01/11 05:02:25;;;;;;;59.70;29.45;;;;;;;-0.75;99.39;103088.00;5087679;28;20077;-82
2022/01/11 05:04:50;;;;;;;62.42;29.00;;;;;;;-0.80;100.00;103076.75;5080659;28;20109;-82
2022/01/11 05:07:16;;;;;;;59.05;29.23;;;;;;;-0.78;100.00;103080.22;5087690;28;20048;-82
2022/01/11 05:09:41;;;;;;;58.20;28.33;;;;;;;-0.81;100.00;103080.16;5087706;28;20035;-82
2022/01/11 05:12:08;;;;;;;60.95;29.27;;;;;;;-0.79;99.72;103087.94;5088905;28;20078;-82
2022/01/11 05:14:33;;;;;;;62.58;31.02;;;;;;;-0.80;99.67;103076.75;5087322;28;20027;-82
2022/01/11 05:16:59;;;;;;;66.57;32.05;;;;;;;-0.85;99.91;103078.41;5089352;28;20024;-82
2022/01/11 05:19:24;;;;;;;65.45;30.70;;;;;;;-0.84;99.59;103085.28;5087964;28;20510;-82
2022/01/11 05:21:49;;;;;;;66.40;31.40;;;;;;;-0.84;99.82;103079.25;5080659;28;20028;-82
2022/01/11 05:24:15;;;;;;;64.38;31.33;;;;;;;-0.85;99.66;103083.56;5093654;28;20028;-82
2022/01/11 05:26:40;;;;;;;67.35;31.60;;;;;;;-0.89;99.58;103066.31;5085488;28;20318;-82
2022/01/11 05:29:06;;;;;;;69.57;31.25;;;;;;;-0.91;99.68;103060.25;5080199;28;20029;-82
2022/01/11 05:31:35;;;;;;;65.20;31.90;;;;;;;-0.92;99.72;103061.09;5093416;28;20230;-82
2022/01/11 05:34:01;;;;;;;65.53;31.63;;;;;;;-0.90;99.36;103064.56;5087222;28;20135;-81
2022/01/11 05:36:26;;;;;;;72.30;32.08;;;;;;;-0.89;99.80;103076.63;5079497;28;20103;-82
2022/01/11 05:38:52;;;;;;;67.10;32.47;;;;;;;-0.89;99.33;103075.78;5089038;28;20031;-81
2022/01/11 05:41:17;;;;;;;67.78;31.23;;;;;;;-0.88;99.26;103080.94;5088168;28;20448;-82
2022/01/11 05:43:42;;;;;;;73.68;33.60;;;;;;;-0.89;99.15;103076.63;5085856;28;20114;-82
2022/01/11 05:46:08;;;;;;;69.38;33.08;;;;;;;-0.90;99.39;103071.47;5079299;28;20032;-82
2022/01/11 05:48:33;;;;;;;69.68;32.17;;;;;;;-0.90;99.27;103076.63;5078486;28;20016;-81
2022/01/11 05:50:59;;;;;;;73.13;33.20;;;;;;;-0.92;99.31;103081.78;5089122;28;20468;-81
2022/01/11 05:53:25;;;;;;;73.00;32.55;;;;;;;-0.92;99.29;103086.94;5088242;28;20036;-82
2022/01/11 05:55:50;;;;;;;71.97;33.78;;;;;;;-0.89;99.36;103091.28;5079443;28;20085;-82
2022/01/11 05:58:16;;;;;;;73.80;33.65;;;;;;;-0.92;99.08;103089.53;5087922;28;20028;-83
2022/01/11 06:00:42;;;;;;;74.18;33.65;;;;;;;-0.95;98.94;103086.91;5085140;28;20384;-83
2022/01/11 06:03:07;;;;;;;72.15;32.30;;;;;;;-0.92;98.81;103102.44;5088428;28;20106;-83
2022/01/11 06:05:38;;;;;;;73.72;33.25;;;;;;;-0.91;98.87;103108.47;5086498;28;20031;-83
2022/01/11 06:08:04;;;;;;;69.18;32.20;;;;;;;-0.93;99.13;103116.22;5098018;28;20027;-83
2022/01/11 06:10:30;;;;;;;74.65;32.95;;;;;;;-0.93;99.14;103125.69;5102534;28;20023;-82
2022/01/11 06:12:55;;;;;;;71.30;32.03;;;;;;;-0.99;99.20;103123.91;5104688;28;20034;-82
2022/01/11 06:15:21;;;;;;;71.03;31.88;;;;;;;-0.98;98.96;103128.22;5085625;28;20024;-82
2022/01/11 06:17:46;;;;;;;72.28;31.77;;;;;;;-0.97;98.77;103129.97;5088423;28;20495;-82
2022/01/11 06:20:15;;;;;;;68.78;32.75;;;;;;;-1.00;98.86;103129.94;5084379;28;20052;-82
2022/01/11 06:22:41;;;;;;;71.90;32.30;;;;;;;-1.01;99.05;103128.19;5085091;28;20063;-82
2022/01/11 06:25:07;;;;;;;68.35;31.70;;;;;;;-0.99;98.72;103142.00;5085057;28;20043;-82
2022/01/11 06:27:34;;;;;;;69.88;31.83;;;;;;;-1.04;98.40;103135.91;5095033;28;20476;-82
2022/01/11 06:29:59;;;;;;;66.07;30.85;;;;;;;-0.99;98.68;103149.75;5077835;28;20398;-82
2022/01/11 06:32:25;;;;;;;68.65;31.38;;;;;;;-1.00;98.77;103148.00;5083138;28;20020;-82
2022/01/11 06:34:52;;;;;;;69.55;30.20;;;;;;;-1.02;98.98;103142.84;5088601;28;20043;-82
2022/01/11 06:37:17;;;;;;;64.43;30.50;;;;;;;-1.01;98.69;103148.88;5077277;28;20032;-82
2022/01/11 06:39:43;;;;;;;61.78;29.98;;;;;;;-1.01;98.54;103148.88;5083235;28;20023;-82
2022/01/11 06:42:08;;;;;;;66.00;30.67;;;;;;;-1.05;98.39;103147.09;5078058;28;20181;-82
2022/01/11 06:44:34;;;;;;;65.47;30.77;;;;;;;-1.03;98.43;103150.56;5081690;28;20031;-82
2022/01/11 06:46:59;;;;;;;65.68;30.38;;;;;;;-1.04;98.29;103154.00;5079028;28;20039;-82
2022/01/11 06:49:25;;;;;;;63.35;30.73;;;;;;;-1.06;98.43;103155.69;5074777;28;20369;-82
2022/01/11 06:51:50;;;;;;;67.07;31.20;;;;;;;-1.05;98.50;103166.06;5067229;28;20025;-82
2022/01/11 06:54:15;;;;;;;59.13;29.92;;;;;;;-1.05;98.38;103158.31;5087416;28;20016;-82
2022/01/11 06:56:43;;;;;;;67.30;31.85;;;;;;;-1.07;98.37;103154.84;5088280;28;20072;-82
2022/01/11 06:59:09;;;;;;;59.97;29.10;;;;;;;-1.07;98.18;103154.84;5077252;28;20028;-82
2022/01/11 07:01:34;;;;;;;60.10;29.75;;;;;;;-1.07;98.56;103151.38;5096990;28;20043;-82
2022/01/11 07:04:00;;;;;;;62.05;29.60;;;;;;;-1.06;98.59;103155.69;5079945;28;20063;-82
2022/01/11 07:06:25;;;;;;;59.67;29.95;;;;;;;-1.08;97.70;103157.41;5075530;28;20028;-82
2022/01/11 07:08:50;;;;;;;59.80;30.42;;;;;;;-1.07;97.75;103161.72;5081215;28;20028;-83
2022/01/11 07:11:16;;;;;;;56.25;29.58;;;;;;;-1.06;97.90;103174.66;5083157;28;20472;-83
2022/01/11 07:13:41;;;;;;;57.53;28.55;;;;;;;-1.06;98.44;103161.72;5078980;28;20028;-82
2022/01/11 07:16:07;;;;;;;58.60;28.15;;;;;;;-1.08;98.41;103165.16;5103168;28;20031;-83
2022/01/11 07:18:32;;;;;;;59.80;29.48;;;;;;;-1.08;98.13;103172.91;5079865;28;20051;-83
2022/01/11 07:20:57;;;;;;;58.38;29.02;;;;;;;-1.12;97.80;103171.13;5095447;28;20492;-83
2022/01/11 07:23:23;;;;;;;57.35;29.50;;;;;;;-1.09;98.16;103186.66;5087063;28;20081;-82
2022/01/11 07:25:48;;;;;;;56.97;30.05;;;;;;;-1.13;97.81;103185.75;5088379;28;20016;-82
2022/01/11 07:28:15;;;;;;;58.78;29.52;;;;;;;-1.14;97.50;103189.19;5079017;28;20111;-82
2022/01/11 07:30:44;;;;;;;57.75;29.17;;;;;;;-1.15;97.97;103197.78;5079376;28;20115;-83
2022/01/11 07:33:09;;;;;;;56.13;28.45;;;;;;;-1.13;98.12;103198.69;5079957;28;20043;-82
2022/01/11 07:35:35;;;;;;;54.75;28.52;;;;;;;-1.12;98.03;103204.72;5079284;28;20545;-85
2022/01/11 07:38:00;;;;;;;56.15;28.92;;;;;;;-1.15;98.13;103202.09;5090815;28;20066;-84
2022/01/11 07:40:26;;;;;;;57.83;29.58;;;;;;;-1.16;98.21;103206.38;5085995;28;20139;-84
2022/01/11 07:42:51;;;;;;;55.63;28.35;;;;;;;-1.14;97.63;103212.44;5085200;28;20384;-83
2022/01/11 07:45:17;;;;;;;59.08;28.88;;;;;;;-1.15;98.01;103209.84;5090360;28;20506;-83
2022/01/11 07:47:42;;;;;;;57.20;29.60;;;;;;;-1.15;97.67;103215.00;5090882;28;20034;-83
2022/01/11 07:50:09;;;;;;;60.65;28.73;;;;;;;-1.16;97.51;103213.28;5083784;28;20549;-83
2022/01/11 07:52:34;;;;;;;54.95;28.42;;;;;;;-1.17;98.27;103209.81;5089641;28;20035;-83
2022/01/11 07:55:00;;;;;;;58.50;28.17;;;;;;;-1.15;97.92;103217.59;5081808;28;20024;-83
2022/01/11 07:57:26;;;;;;;57.22;28.40;;;;;;;-1.15;97.78;103218.47;5072657;28;20369;-82
2022/01/11 07:59:51;;;;;;;55.30;27.80;;;;;;;-1.16;97.59;103210.69;5089991;28;20480;-84
2022/01/11 08:02:17;;;;;;;56.65;27.73;;;;;;;-1.15;97.60;103213.28;5083871;28;20523;-83
2022/01/11 08:04:42;;;;;;;50.10;26.58;;;;;;;-1.18;97.83;103212.38;5083534;28;20469;-85
2022/01/11 08:07:09;;;;;;;53.22;27.27;;;;;;;-1.17;97.47;103217.56;5083748;28;20031;-85
2022/01/11 08:09:35;;;;;;;53.95;27.48;;;;;;;-1.18;97.70;103212.38;5083822;28;20016;-85
2022/01/11 08:12:01;;;;;;;53.80;27.35;;;;;;;-1.15;97.38;103218.47;5082674;28;20363;-85
2022/01/11 08:14:26;;;;;;;53.25;27.85;;;;;;;-1.15;97.65;103217.59;5100407;28;20081;-85
2022/01/11 08:16:52;;;;;;;49.90;27.30;;;;;;;-1.14;97.20;103209.84;5085072;28;20544;-86
2022/01/11 08:19:20;;;;;;;50.80;27.58;;;;;;;-1.13;97.49;103215.88;5083282;28;20032;-84
2022/01/11 08:21:47;;;;;;;49.45;25.73;;;;;;;-1.11;97.62;103216.78;5083133;28;20112;-84
2022/01/11 08:24:12;;;;;;;54.78;27.30;;;;;;;-1.10;97.51;103221.97;5083709;28;20027;-84
2022/01/11 08:26:38;;;;;;;53.05;27.25;;;;;;;-1.08;97.73;103215.09;5080170;28;20442;-84
2022/01/11 08:29:03;;;;;;;50.90;26.20;;;;;;;-1.07;97.86;103211.66;5086699;28;20024;-84
2022/01/11 08:31:29;;;;;;;56.65;27.65;;;;;;;-1.03;98.08;103226.34;5081014;28;20436;-84
2022/01/11 08:33:55;;;;;;;48.40;26.15;;;;;;;-1.00;97.60;103217.75;5086965;28;20048;-82
2022/01/11 08:36:20;;;;;;;52.95;26.45;;;;;;;-0.99;98.29;103222.09;5085286;28;20035;-82
2022/01/11 08:38:45;;;;;;;46.47;26.20;;;;;;;-0.93;97.78;103222.16;5084077;28;20103;-81
2022/01/11 08:41:14;;;;;;;48.67;25.67;;;;;;;-0.93;97.66;103216.97;5083692;28;20028;-81
2022/01/11 08:43:39;;;;;;;52.13;26.65;;;;;;;-0.89;98.71;103223.91;5081725;28;20490;-82
2022/01/11 08:46:05;;;;;;;47.97;24.98;;;;;;;-0.83;97.98;103221.41;5086679;28;20066;-82
2022/01/11 08:48:31;;;;;;;49.67;24.50;;;;;;;-0.80;97.94;103226.63;5088158;28;20430;-81
2022/01/11 08:50:57;;;;;;;46.88;24.42;;;;;;;-0.75;98.52;103229.28;5086459;28;20314;-81
2022/01/11 08:53:23;;;;;;;51.63;25.67;;;;;;;-0.74;98.14;103221.53;5084669;28;20122;-81
2022/01/11 08:55:49;;;;;;;51.33;26.25;;;;;;;-0.71;98.37;103221.56;5090684;28;20490;-82
2022/01/11 08:58:15;;;;;;;50.17;25.25;;;;;;;-0.67;97.92;103218.16;5088532;28;20399;-81
2022/01/11 09:00:41;;;;;;;47.15;25.30;;;;;;;-0.60;98.04;103223.38;5090263;28;20020;-82
2022/01/11 09:03:06;;;;;;;48.67;25.77;;;;;;;-0.57;98.06;103219.13;5087982;28;20032;-81
2022/01/11 09:05:31;;;;;;;45.75;24.38;;;;;;;-0.53;97.96;103235.53;5098393;28;20043;-81
2022/01/11 09:07:57;;;;;;;43.45;23.98;;;;;;;-0.52;97.56;103232.09;5077190;28;20505;-81
2022/01/11 09:10:22;;;;;;;47.28;23.90;;;;;;;-0.45;97.20;103244.22;5073947;28;20027;-81
2022/01/11 09:12:48;;;;;;;45.40;24.25;;;;;;;-0.43;97.81;103243.38;5088539;28;20043;-81
2022/01/11 09:15:14;;;;;;;45.60;24.85;;;;;;;-0.37;97.24;103242.59;5081507;28;20028;-82
2022/01/11 09:17:41;;;;;;;49.15;24.02;;;;;;;-0.36;97.61;103229.69;5088031;28;20032;-82
2022/01/11 09:20:09;;;;;;;44.63;24.17;;;;;;;-0.29;97.39;103235.78;5085625;28;20066;-82
2022/01/11 09:22:34;;;;;;;46.83;24.05;;;;;;;-0.23;98.14;103242.72;5086934;28;20033;-82
2022/01/11 09:24:59;;;;;;;44.35;24.25;;;;;;;-0.21;98.02;103239.28;5088993;28;20526;-82
2022/01/11 09:27:25;;;;;;;42.42;23.98;;;;;;;-0.18;97.89;103238.47;5088191;28;20391;-82
2022/01/11 09:29:50;;;;;;;47.38;25.13;;;;;;;-0.12;97.83;103244.53;5088876;28;20024;-83
2022/01/11 09:32:16;;;;;;;46.42;24.92;;;;;;;-0.07;97.84;103239.41;5080719;28;20020;-81
2022/01/11 09:34:41;;;;;;;47.25;23.33;;;;;;;-0.03;97.58;103238.59;5086990;28;20024;-80
2022/01/11 09:37:09;;;;;;;47.72;23.52;;;;;;;0.02;97.22;103236.94;5087238;28;20063;-80
2022/01/11 09:39:36;;;;;;;42.50;22.88;;;;;;;0.06;97.35;103246.44;5074517;28;20016;-80
2022/01/11 09:42:05;;;;;;;41.75;22.52;;;;;;;0.11;97.53;103243.88;5087505;28;20028;-79
2022/01/11 09:44:32;;;;;;;43.30;22.92;;;;;;;0.18;97.13;103254.31;5082615;28;20039;-81
2022/01/11 09:46:58;;;;;;;43.10;22.20;;;;;;;0.20;97.51;103251.72;5085359;28;20138;-82
2022/01/11 09:49:23;;;;;;;38.72;22.80;;;;;;;0.26;96.65;103260.41;5088944;28;20520;-82
2022/01/11 09:51:50;;;;;;;41.90;22.17;;;;;;;0.31;96.25;103265.59;5089096;28;20035;-83
2022/01/11 09:54:21;;;;;;;39.83;21.98;;;;;;;0.37;96.17;103264.78;5087052;28;20028;-82
2022/01/11 09:56:47;;;;;;;39.03;21.02;;;;;;;0.40;96.13;103259.63;5082213;28;20093;-82
2022/01/11 09:59:15;;;;;;;35.60;20.70;;;;;;;0.46;95.92;103264.88;5085300;28;20380;-82
2022/01/11 10:01:40;;;;;;;42.03;20.45;;;;;;;0.48;96.05;103269.19;5093105;28;20032;-83
2022/01/11 10:04:16;;;;;;;33.95;19.13;;;;;;;0.53;95.35;103264.91;5086476;28;20421;-82
2022/01/11 10:06:42;;;;;;;34.65;20.25;;;;;;;0.58;95.55;103268.41;5089488;28;20050;-82
2022/01/11 10:09:16;;;;;;;36.55;20.77;;;;;;;0.63;94.89;103271.88;5080617;28;20071;-82
2022/01/11 10:11:43;;;;;;;38.78;20.35;;;;;;;0.69;94.17;103265.00;5085945;28;20388;-83
2022/01/11 10:14:22;;;;;;;35.33;19.20;;;;;;;0.74;95.21;103265.88;5084319;28;20020;-82
2022/01/11 10:16:49;;;;;;;33.70;19.35;;;;;;;0.79;95.29;103267.66;5083118;28;20020;-82
2022/01/11 10:19:25;;;;;;;30.98;18.48;;;;;;;0.82;95.28;103275.47;5087577;28;20042;-82
2022/01/11 10:21:51;;;;;;;39.92;20.65;;;;;;;0.89;94.61;103278.94;5087352;28;20039;-82
2022/01/11 10:24:32;;;;;;;32.70;18.40;;;;;;;0.91;94.08;103267.72;5088546;28;20024;-83
2022/01/11 10:27:25;;;;;;;35.35;18.35;;;;;;;0.97;93.79;103269.47;5079893;28;20032;-83
2022/01/11 10:29:53;;;;;;;31.67;17.92;;;;;;;1.02;93.78;103272.97;5080135;28;20070;-83
2022/01/11 10:32:27;;;;;;;31.80;18.50;;;;;;;1.07;93.14;103272.97;5103618;28;20027;-82
2022/01/11 10:34:55;;;;;;;33.78;18.35;;;;;;;1.09;93.17;103263.47;5088133;28;20028;-82
2022/01/11 10:37:33;;;;;;;33.08;18.42;;;;;;;1.17;93.73;103272.16;5083719;28;20028;-83
2022/01/11 10:40:10;;;;;;;32.45;18.77;;;;;;;1.21;93.61;103273.94;5089365;28;20038;-82
2022/01/11 10:42:39;;;;;;;30.65;17.65;;;;;;;1.23;92.59;103273.06;5088177;28;20069;-83
2022/01/11 10:45:10;;;;;;;34.83;18.35;;;;;;;1.29;92.15;103271.34;5079459;28;20058;-83
2022/01/11 10:47:41;;;;;;;33.92;18.48;;;;;;;1.34;92.41;103269.63;5080219;28;20035;-83
2022/01/11 10:50:28;;;;;;;28.55;17.50;;;;;;;1.40;92.33;103277.44;5066022;28;20028;-82
2022/01/11 10:52:56;;;;;;;32.65;17.95;;;;;;;1.41;92.04;103276.56;5067058;28;20066;-83
2022/01/11 10:55:25;;;;;;;30.85;18.60;;;;;;;1.47;92.05;103279.19;5067213;28;20085;-82
2022/01/11 10:57:56;;;;;;;29.27;16.95;;;;;;;1.48;91.94;103276.59;5083085;28;20109;-83
2022/01/11 11:00:31;;;;;;;29.17;17.05;;;;;;;1.57;91.95;103278.34;5068137;28;20032;-82
2022/01/11 11:02:59;;;;;;;27.63;16.90;;;;;;;1.57;92.19;103267.97;5101410;28;20032;-82
2022/01/11 11:05:25;;;;;;;30.77;16.88;;;;;;;1.65;91.89;103271.47;5086359;28;20024;-83
2022/01/11 11:08:00;;;;;;;28.30;17.58;;;;;;;1.70;91.32;103269.75;5088572;28;20069;-83